createdAt,value
2023-04-24T00:00:27.301Z,0.35
2023-04-24T00:05:30.658Z,2.05
2023-04-24T00:10:33.527Z,1.85
2023-04-24T00:15:37.738Z,0.30
2023-04-24T00:20:40.778Z,0.30
2023-04-24T00:25:43.684Z,0.35
2023-04-24T00:30:47.861Z,0.82
2023-04-24T00:35:50.613Z,0.45
2023-04-24T00:40:54.959Z,2.08
2023-04-24T00:46:00.602Z,1.05
2023-04-24T00:51:03.830Z,0.57
2023-04-24T00:56:07.546Z,1.20
2023-04-24T01:01:12.829Z,0.65
2023-04-24T01:06:16.156Z,0.57
2023-04-24T01:11:20.041Z,0.47
2023-04-24T01:16:24.368Z,0.57
2023-04-24T01:21:29.669Z,0.70
2023-04-24T01:26:35.526Z,1.77
2023-04-24T01:31:38.827Z,0.80
2023-04-24T01:36:43.572Z,0.70
2023-04-24T01:41:48.189Z,0.80
2023-04-24T01:46:51.469Z,0.77
2023-04-24T01:51:54.705Z,2.50
2023-04-24T01:56:59.171Z,0.77
2023-04-24T02:02:02.096Z,0.88
2023-04-24T02:07:04.930Z,0.70
2023-04-24T02:12:11.616Z,0.85
2023-04-24T02:17:15.058Z,0.80
2023-04-24T02:22:17.848Z,2.78
2023-04-24T02:27:22.009Z,1.20
2023-04-24T02:32:24.799Z,0.90
2023-04-24T02:37:27.641Z,1.15
2023-04-24T02:42:31.779Z,1.77
2023-04-24T02:47:34.593Z,1.02
2023-04-24T02:52:37.437Z,1.25
2023-04-24T02:57:41.728Z,0.90
2023-04-24T03:02:44.784Z,1.42
2023-04-24T03:07:47.887Z,1.02
2023-04-24T03:12:52.033Z,0.93
2023-04-24T03:17:56.771Z,0.65
2023-04-24T03:23:00.098Z,0.85
2023-04-24T03:28:04.748Z,0.57
2023-04-24T03:33:20.187Z,0.95
2023-04-24T03:38:40.733Z,1.65
2023-04-24T03:43:59.486Z,0.63
2023-04-24T03:49:02.307Z,0.80
2023-04-24T03:54:09.570Z,1.52
2023-04-24T03:59:17.724Z,1.98
2023-04-24T04:04:25.605Z,1.25
2023-04-24T04:09:28.614Z,1.40
2023-04-24T04:14:33.593Z,1.98
2023-04-24T04:19:36.371Z,1.52
2023-04-24T04:24:41.528Z,2.97
2023-04-24T04:29:46.992Z,2.38
2023-04-24T04:34:54.284Z,1.80
2023-04-24T04:39:59.671Z,2.92
2023-04-24T04:45:10.264Z,2.10
2023-04-24T04:50:24.845Z,4.40
2023-04-24T04:55:32.110Z,2.95
2023-04-24T05:00:52.075Z,3.45
2023-04-24T05:06:08.616Z,6.07
2023-04-24T05:11:14.274Z,9.50
2023-04-24T05:16:19.548Z,9.25
2023-04-24T05:21:24.564Z,8.35
2023-04-24T05:26:28.738Z,12.00
2023-04-24T05:31:36.051Z,10.93
2023-04-24T05:36:39.380Z,11.32
2023-04-24T05:41:42.231Z,13.77
2023-04-24T05:46:46.414Z,6.60
2023-04-24T05:51:49.711Z,13.07
2023-04-24T05:56:55.442Z,11.38
2023-04-24T06:02:09.998Z,13.85
2023-04-24T06:07:13.485Z,16.13
2023-04-24T06:12:18.882Z,16.55
2023-04-24T06:17:34.930Z,15.30
2023-04-24T06:22:37.889Z,14.88
2023-04-24T06:27:41.403Z,17.75
2023-04-24T06:32:46.015Z,11.75
2023-04-24T06:37:49.226Z,18.38
2023-04-24T06:42:52.238Z,15.23
2023-04-24T06:47:57.065Z,12.82
2023-04-24T06:52:59.824Z,14.32
2023-04-24T06:58:02.682Z,14.48
2023-04-24T07:03:07.369Z,16.27
2023-04-24T07:08:12.435Z,9.02
2023-04-24T07:13:15.246Z,13.85
2023-04-24T07:18:20.555Z,17.20
2023-04-24T07:23:23.483Z,14.57
2023-04-24T07:28:27.966Z,15.38
2023-04-24T07:33:32.127Z,14.85
2023-04-24T07:38:35.201Z,16.77
2023-04-24T07:43:37.935Z,14.45
2023-04-24T07:48:42.048Z,18.05
2023-04-24T07:53:45.763Z,12.65
2023-04-24T07:58:48.494Z,9.63
2023-04-24T08:03:52.992Z,11.15
2023-04-24T08:08:56.302Z,8.52
2023-04-24T08:13:59.152Z,9.35
2023-04-24T08:19:03.405Z,8.35
2023-04-24T08:24:08.778Z,8.95
2023-04-24T08:29:11.685Z,7.05
2023-04-24T08:34:15.777Z,4.70
2023-04-24T08:39:19.758Z,5.38
2023-04-24T08:44:22.575Z,4.80
2023-04-24T08:49:27.411Z,3.70
2023-04-24T08:54:31.155Z,3.42
2023-04-24T08:59:34.229Z,3.60
2023-04-24T09:04:40.066Z,4.18
2023-04-24T09:09:44.242Z,2.22
2023-04-24T09:14:47.519Z,3.20
2023-04-24T09:19:52.064Z,2.75
2023-04-24T09:25:03.728Z,3.22
2023-04-24T09:30:08.474Z,4.70
2023-04-24T09:35:14.628Z,1.92
2023-04-24T09:40:18.856Z,3.40
2023-04-24T09:45:22.368Z,2.03
2023-04-24T09:50:26.493Z,2.92
2023-04-24T09:55:29.754Z,1.70
2023-04-24T10:00:34.434Z,2.42
2023-04-24T10:05:39.761Z,1.88
2023-04-24T10:10:44.299Z,1.52
2023-04-24T10:15:48.522Z,1.52
2023-04-24T10:20:53.050Z,2.72
2023-04-24T10:25:56.659Z,2.60
2023-04-24T10:31:00.360Z,2.83
2023-04-24T10:36:04.923Z,1.30
2023-04-24T10:41:16.745Z,1.08
2023-04-24T10:46:22.439Z,0.83
2023-04-24T10:51:44.808Z,2.75
2023-04-24T10:56:47.582Z,1.88
2023-04-24T11:01:55.417Z,3.80
2023-04-24T11:06:59.955Z,4.88
2023-04-24T11:12:08.700Z,5.93
2023-04-24T11:17:31.150Z,5.57
2023-04-24T11:22:37.313Z,6.63
2023-04-24T11:27:42.178Z,5.65
2023-04-24T11:32:45.552Z,5.15
2023-04-24T11:42:57.229Z,2.50
2023-04-24T11:48:00.325Z,2.15
2023-04-24T11:53:06.272Z,2.45
2023-04-24T11:58:09.037Z,1.30
2023-04-24T12:03:13.393Z,1.30
2023-04-24T12:08:30.789Z,0.52
2023-04-24T12:13:33.682Z,0.60
2023-04-24T12:18:36.405Z,3.45
2023-04-24T12:23:40.575Z,3.45
2023-04-24T12:28:43.392Z,2.45
2023-04-24T12:33:46.217Z,4.10
2023-04-24T12:38:55.176Z,3.08
2023-04-24T12:43:57.960Z,2.85
2023-04-24T12:49:00.842Z,3.08
2023-04-24T12:54:05.359Z,8.55
2023-04-24T12:59:08.187Z,9.65
2023-04-24T13:04:11.336Z,10.57
2023-04-24T13:09:15.714Z,7.63
2023-04-24T13:14:18.457Z,10.98
2023-04-24T13:19:21.287Z,9.75
2023-04-24T13:24:25.981Z,10.00
2023-04-24T13:29:29.336Z,6.45
2023-04-24T13:34:32.159Z,6.55
2023-04-24T13:39:36.353Z,8.30
2023-04-24T13:44:39.432Z,7.30
2023-04-24T13:49:42.219Z,6.78
2023-04-24T13:54:46.333Z,6.93
2023-04-24T13:59:49.113Z,12.85
2023-04-24T14:04:52.026Z,12.18
2023-04-24T14:09:56.250Z,13.50
2023-04-24T14:14:59.032Z,14.75
2023-04-24T14:20:01.857Z,22.27
2023-04-24T14:25:07.272Z,15.65
2023-04-24T14:30:10.733Z,19.65
2023-04-24T14:35:13.541Z,14.63
2023-04-24T14:40:39.572Z,16.80
2023-04-24T14:45:41.895Z,12.00
2023-04-24T14:50:44.693Z,10.93
2023-04-24T14:55:48.855Z,12.13
2023-04-24T15:00:52.991Z,8.82
2023-04-24T15:05:55.831Z,15.05
2023-04-24T15:11:00.247Z,18.10
2023-04-24T15:16:03.290Z,15.80
2023-04-24T15:21:06.475Z,11.38
2023-04-24T15:26:10.629Z,6.25
2023-04-24T15:31:13.373Z,7.70
2023-04-24T15:36:16.806Z,6.18
2023-04-24T15:41:20.934Z,8.57
2023-04-24T15:46:23.747Z,5.85
2023-04-24T15:51:26.615Z,7.38
2023-04-24T15:56:31.635Z,5.55
2023-04-24T16:01:34.751Z,6.70
2023-04-24T16:06:37.624Z,8.88
2023-04-24T16:11:41.879Z,4.78
2023-04-24T16:16:44.599Z,6.47
2023-04-24T16:21:47.344Z,5.45
2023-04-24T16:26:51.824Z,5.30
2023-04-24T16:31:54.636Z,6.97
2023-04-24T16:36:57.510Z,2.80
2023-04-24T16:42:02.556Z,5.68
2023-04-24T16:47:05.571Z,4.80
2023-04-24T16:52:08.685Z,6.38
2023-04-24T16:57:12.900Z,6.65
2023-04-24T17:02:15.692Z,5.75
2023-04-24T17:07:18.646Z,4.63
2023-04-24T17:12:22.787Z,4.63
2023-04-24T17:17:25.606Z,6.45
2023-04-24T17:22:28.396Z,6.95
2023-04-24T17:27:32.626Z,4.97
2023-04-24T17:32:35.660Z,8.20
2023-04-24T17:37:38.936Z,6.00
2023-04-24T17:42:43.088Z,5.43
2023-04-24T17:47:46.394Z,3.17
2023-04-24T17:52:49.345Z,5.88
2023-04-24T17:57:53.487Z,5.88
2023-04-24T18:03:00.944Z,2.72
2023-04-24T18:08:05.081Z,5.20
2023-04-24T18:13:09.733Z,5.18
2023-04-24T18:18:12.648Z,8.10
2023-04-24T18:23:15.448Z,7.50
2023-04-24T18:28:19.598Z,3.78
2023-04-24T18:33:22.391Z,5.03
2023-04-24T18:38:26.090Z,7.47
2023-04-24T18:43:30.336Z,6.80
2023-04-24T18:48:33.119Z,6.40
2023-04-24T18:53:35.938Z,10.65
2023-04-24T18:58:44.265Z,5.65
2023-04-24T19:03:47.214Z,5.18
2023-04-24T19:08:50.639Z,11.52
2023-04-24T19:13:55.234Z,11.20
2023-04-24T19:18:58.023Z,6.78
2023-04-24T19:24:00.985Z,9.88
2023-04-24T19:29:05.271Z,11.45
2023-04-24T19:34:08.036Z,11.43
2023-04-24T19:39:11.020Z,11.07
2023-04-24T19:44:17.286Z,9.00
2023-04-24T19:49:20.139Z,11.38
2023-04-24T19:54:22.885Z,4.65
2023-04-24T19:59:27.099Z,11.60
2023-04-24T20:04:30.237Z,16.58
2023-04-24T20:09:33.226Z,9.30
2023-04-24T20:14:37.425Z,11.95
2023-04-24T20:19:41.067Z,10.20
2023-04-24T20:24:44.513Z,12.35
2023-04-24T20:29:48.681Z,10.48
2023-04-24T20:34:51.630Z,12.75
2023-04-24T20:39:54.466Z,11.50
2023-04-24T20:44:58.870Z,12.80
2023-04-24T20:50:02.841Z,14.38
2023-04-24T20:55:06.893Z,7.78
2023-04-24T21:00:12.931Z,14.90
2023-04-24T21:05:15.914Z,16.88
2023-04-24T21:10:19.878Z,22.17
2023-04-24T21:15:24.134Z,7.93
2023-04-24T21:20:27.010Z,17.02
2023-04-24T21:25:30.001Z,9.73
2023-04-24T21:30:34.640Z,11.30
2023-04-24T21:35:37.502Z,11.20
2023-04-24T21:40:40.314Z,11.82
2023-04-24T21:45:44.941Z,9.85
2023-04-24T21:50:47.707Z,12.18
2023-04-24T21:55:50.713Z,10.43
2023-04-24T22:00:54.935Z,12.93
2023-04-24T22:05:57.939Z,22.05
2023-04-24T22:11:01.127Z,14.77
2023-04-24T22:16:05.652Z,14.20
2023-04-24T22:21:08.914Z,11.30
2023-04-24T22:26:11.693Z,8.77
2023-04-24T22:31:15.935Z,10.23
2023-04-24T22:36:18.877Z,16.85
2023-04-24T22:41:22.664Z,20.38
2023-04-24T22:46:26.804Z,13.55
2023-04-24T22:51:33.449Z,13.82
2023-04-24T22:56:37.714Z,21.63
2023-04-24T23:01:41.990Z,12.07
2023-04-24T23:06:44.888Z,14.30
2023-04-24T23:11:47.928Z,17.83
2023-04-24T23:16:52.081Z,10.15
2023-04-24T23:21:54.935Z,15.30
2023-04-24T23:26:57.827Z,16.00
2023-04-24T23:32:03.627Z,11.65
2023-04-24T23:37:06.886Z,16.20
2023-04-24T23:42:09.751Z,17.30
2023-04-24T23:47:13.895Z,13.43
2023-04-24T23:52:16.705Z,12.23
2023-04-24T23:57:19.489Z,17.80
